sensor_id;sensor_type;location;lat;lon;timestamp;temperature;humidity
36690;DHT22;22676;51.120;3.702;2022-10-17T00:01:35;22.60;61.60
36690;DHT22;22676;51.120;3.702;2022-10-17T00:04:46;22.60;61.60
36690;DHT22;22676;51.120;3.702;2022-10-17T00:07:36;22.70;61.60
36690;DHT22;22676;51.120;3.702;2022-10-17T00:10:27;22.60;61.60
36690;DHT22;22676;51.120;3.702;2022-10-17T00:13:18;22.60;61.40
36690;DHT22;22676;51.120;3.702;2022-10-17T00:16:09;22.60;61.10
36690;DHT22;22676;51.120;3.702;2022-10-17T00:19:00;22.60;61.20
36690;DHT22;22676;51.120;3.702;2022-10-17T00:21:50;22.50;61.70
36690;DHT22;22676;51.120;3.702;2022-10-17T00:24:41;22.50;61.70
36690;DHT22;22676;51.120;3.702;2022-10-17T00:27:39;22.50;61.70
36690;DHT22;22676;51.120;3.702;2022-10-17T00:30:30;22.60;61.70
36690;DHT22;22676;51.120;3.702;2022-10-17T00:33:21;22.60;61.60
36690;DHT22;22676;51.120;3.702;2022-10-17T00:36:14;22.60;61.40
36690;DHT22;22676;51.120;3.702;2022-10-17T00:39:05;22.70;61.40
36690;DHT22;22676;51.120;3.702;2022-10-17T00:41:56;22.60;61.40
36690;DHT22;22676;51.120;3.702;2022-10-17T00:47:38;22.60;61.60
36690;DHT22;22676;51.120;3.702;2022-10-17T00:50:29;22.60;61.60
36690;DHT22;22676;51.120;3.702;2022-10-17T00:53:20;22.60;61.60
36690;DHT22;22676;51.120;3.702;2022-10-17T00:56:11;22.60;61.70
36690;DHT22;22676;51.120;3.702;2022-10-17T00:59:02;22.60;61.60
36690;DHT22;22676;51.120;3.702;2022-10-17T01:02:01;22.60;61.50
36690;DHT22;22676;51.120;3.702;2022-10-17T01:05:10;22.60;61.50
36690;DHT22;22676;51.120;3.702;2022-10-17T01:08:01;22.60;61.50
36690;DHT22;22676;51.120;3.702;2022-10-17T01:14:01;22.70;61.30
36690;DHT22;22676;51.120;3.702;2022-10-17T01:17:04;22.70;61.10
36690;DHT22;22676;51.120;3.702;2022-10-17T01:26:26;22.50;61.50
36690;DHT22;22676;51.120;3.702;2022-10-17T02:48:35;22.60;61.10
36690;DHT22;22676;51.120;3.702;2022-10-17T03:00:00;22.70;60.80
36690;DHT22;22676;51.120;3.702;2022-10-17T03:02:52;22.70;60.80
36690;DHT22;22676;51.120;3.702;2022-10-17T03:05:57;22.70;60.90
36690;DHT22;22676;51.120;3.702;2022-10-17T03:08:47;22.70;60.70
36690;DHT22;22676;51.120;3.702;2022-10-17T03:11:37;22.70;60.70
36690;DHT22;22676;51.120;3.702;2022-10-17T03:14:28;22.60;60.70
36690;DHT22;22676;51.120;3.702;2022-10-17T03:17:18;22.60;61.10
36690;DHT22;22676;51.120;3.702;2022-10-17T03:20:09;22.50;61.30
36690;DHT22;22676;51.120;3.702;2022-10-17T03:23:00;22.50;61.20
36690;DHT22;22676;51.120;3.702;2022-10-17T03:25:51;22.50;61.20
36690;DHT22;22676;51.120;3.702;2022-10-17T03:28:42;22.50;61.10
36690;DHT22;22676;51.120;3.702;2022-10-17T03:31:33;22.60;61.00
36690;DHT22;22676;51.120;3.702;2022-10-17T03:34:24;22.60;60.80
36690;DHT22;22676;51.120;3.702;2022-10-17T03:37:15;22.60;60.80
36690;DHT22;22676;51.120;3.702;2022-10-17T03:40:05;22.50;60.90
36690;DHT22;22676;51.120;3.702;2022-10-17T03:42:56;22.60;60.80
36690;DHT22;22676;51.120;3.702;2022-10-17T03:55:22;22.60;60.80
36690;DHT22;22676;51.120;3.702;2022-10-17T03:58:13;22.60;60.90
36690;DHT22;22676;51.120;3.702;2022-10-17T04:01:04;22.60;60.90
36690;DHT22;22676;51.120;3.702;2022-10-17T06:02:40;22.70;61.10
36690;DHT22;22676;51.120;3.702;2022-10-17T06:05:05;22.80;61.00
36690;DHT22;22676;51.120;3.702;2022-10-17T06:07:31;22.70;61.30
36690;DHT22;22676;51.120;3.702;2022-10-17T06:09:56;22.70;61.40
36690;DHT22;22676;51.120;3.702;2022-10-17T06:12:23;22.70;61.50
36690;DHT22;22676;51.120;3.702;2022-10-17T06:14:49;22.60;62.00
36690;DHT22;22676;51.120;3.702;2022-10-17T06:17:14;22.70;60.50
36690;DHT22;22676;51.120;3.702;2022-10-17T06:19:40;22.80;61.00
36690;DHT22;22676;51.120;3.702;2022-10-17T06:22:06;22.80;60.60
36690;DHT22;22676;51.120;3.702;2022-10-17T06:24:31;22.90;60.40
36690;DHT22;22676;51.120;3.702;2022-10-17T06:27:27;23.00;60.20
36690;DHT22;22676;51.120;3.702;2022-10-17T07:24:58;23.00;60.20
36690;DHT22;22676;51.120;3.702;2022-10-17T07:27:49;23.00;60.10
36690;DHT22;22676;51.120;3.702;2022-10-17T07:30:40;23.10;60.10
36690;DHT22;22676;51.120;3.702;2022-10-17T07:33:31;23.10;60.10
36690;DHT22;22676;51.120;3.702;2022-10-17T07:36:22;23.10;60.10
36690;DHT22;22676;51.120;3.702;2022-10-17T07:39:13;23.10;60.10
36690;DHT22;22676;51.120;3.702;2022-10-17T07:42:04;23.10;60.00
36690;DHT22;22676;51.120;3.702;2022-10-17T07:44:55;23.10;60.20
36690;DHT22;22676;51.120;3.702;2022-10-17T07:47:46;23.10;59.90
36690;DHT22;22676;51.120;3.702;2022-10-17T07:53:46;23.10;59.90
36690;DHT22;22676;51.120;3.702;2022-10-17T07:56:37;23.10;60.00
36690;DHT22;22676;51.120;3.702;2022-10-17T07:59:27;23.10;60.00
36690;DHT22;22676;51.120;3.702;2022-10-17T08:02:22;23.10;60.00
36690;DHT22;22676;51.120;3.702;2022-10-17T08:34:39;23.10;60.00
36690;DHT22;22676;51.120;3.702;2022-10-17T08:37:30;23.10;60.00
36690;DHT22;22676;51.120;3.702;2022-10-17T08:40:22;23.10;60.00
36690;DHT22;22676;51.120;3.702;2022-10-17T08:43:17;23.10;60.10
36690;DHT22;22676;51.120;3.702;2022-10-17T08:46:09;23.10;60.00
36690;DHT22;22676;51.120;3.702;2022-10-17T08:49:00;23.10;60.00
36690;DHT22;22676;51.120;3.702;2022-10-17T08:51:59;23.10;60.00
36690;DHT22;22676;51.120;3.702;2022-10-17T08:54:51;23.10;59.90
36690;DHT22;22676;51.120;3.702;2022-10-17T08:57:42;23.10;59.90
36690;DHT22;22676;51.120;3.702;2022-10-17T09:00:33;23.10;59.90
36690;DHT22;22676;51.120;3.702;2022-10-17T09:08:22;23.20;60.00
36690;DHT22;22676;51.120;3.702;2022-10-17T09:13:21;23.10;59.90
36690;DHT22;22676;51.120;3.702;2022-10-17T09:16:02;23.10;59.80
36690;DHT22;22676;51.120;3.702;2022-10-17T09:18:30;23.10;59.80
36690;DHT22;22676;51.120;3.702;2022-10-17T09:21:01;23.10;60.10
36690;DHT22;22676;51.120;3.702;2022-10-17T09:23:31;23.10;60.70
36690;DHT22;22676;51.120;3.702;2022-10-17T09:26:01;23.10;60.00
36690;DHT22;22676;51.120;3.702;2022-10-17T09:28:29;23.10;60.00
36690;DHT22;22676;51.120;3.702;2022-10-17T09:30:58;23.10;60.00
36690;DHT22;22676;51.120;3.702;2022-10-17T09:33:26;23.10;60.00
36690;DHT22;22676;51.120;3.702;2022-10-17T09:35:55;23.10;59.90
36690;DHT22;22676;51.120;3.702;2022-10-17T09:38:42;23.10;59.90
36690;DHT22;22676;51.120;3.702;2022-10-17T09:41:35;23.10;60.00
36690;DHT22;22676;51.120;3.702;2022-10-17T09:44:27;23.20;60.00
36690;DHT22;22676;51.120;3.702;2022-10-17T09:47:27;23.20;60.00
36690;DHT22;22676;51.120;3.702;2022-10-17T09:50:16;23.20;59.90
36690;DHT22;22676;51.120;3.702;2022-10-17T09:53:08;23.10;59.80
36690;DHT22;22676;51.120;3.702;2022-10-17T09:55:57;23.10;59.90
36690;DHT22;22676;51.120;3.702;2022-10-17T09:58:52;23.10;59.90
36690;DHT22;22676;51.120;3.702;2022-10-17T10:01:39;23.10;59.90
36690;DHT22;22676;51.120;3.702;2022-10-17T10:04:25;23.10;59.90
36690;DHT22;22676;51.120;3.702;2022-10-17T10:07:10;23.10;59.90
36690;DHT22;22676;51.120;3.702;2022-10-17T10:10:25;23.10;59.90
36690;DHT22;22676;51.120;3.702;2022-10-17T11:18:04;23.00;61.00
36690;DHT22;22676;51.120;3.702;2022-10-17T11:20:58;23.00;61.10
36690;DHT22;22676;51.120;3.702;2022-10-17T11:24:05;23.00;61.10
36690;DHT22;22676;51.120;3.702;2022-10-17T11:26:58;23.00;60.90
36690;DHT22;22676;51.120;3.702;2022-10-17T11:29:49;22.90;61.00
36690;DHT22;22676;51.120;3.702;2022-10-17T11:32:51;22.90;61.30
36690;DHT22;22676;51.120;3.702;2022-10-17T11:35:43;23.00;61.50
36690;DHT22;22676;51.120;3.702;2022-10-17T11:38:44;23.00;61.30
36690;DHT22;22676;51.120;3.702;2022-10-17T11:41:44;23.00;61.40
36690;DHT22;22676;51.120;3.702;2022-10-17T11:44:38;23.00;61.30
36690;DHT22;22676;51.120;3.702;2022-10-17T11:47:32;23.00;61.40
36690;DHT22;22676;51.120;3.702;2022-10-17T11:50:25;23.00;61.30
36690;DHT22;22676;51.120;3.702;2022-10-17T11:53:18;23.00;61.40
36690;DHT22;22676;51.120;3.702;2022-10-17T11:56:09;23.00;61.30
36690;DHT22;22676;51.120;3.702;2022-10-17T11:59:12;22.90;61.30
36690;DHT22;22676;51.120;3.702;2022-10-17T12:02:22;23.00;61.40
36690;DHT22;22676;51.120;3.702;2022-10-17T12:05:23;22.90;61.50
36690;DHT22;22676;51.120;3.702;2022-10-17T12:11:18;23.00;61.50
36690;DHT22;22676;51.120;3.702;2022-10-17T12:17:29;23.00;61.40
36690;DHT22;22676;51.120;3.702;2022-10-17T12:26:03;23.00;61.40
36690;DHT22;22676;51.120;3.702;2022-10-17T12:28:53;23.00;61.40
36690;DHT22;22676;51.120;3.702;2022-10-17T12:31:44;23.00;61.30
36690;DHT22;22676;51.120;3.702;2022-10-17T12:34:34;23.00;61.40
36690;DHT22;22676;51.120;3.702;2022-10-17T12:41:00;23.00;61.30
36690;DHT22;22676;51.120;3.702;2022-10-17T12:43:52;23.00;61.40
36690;DHT22;22676;51.120;3.702;2022-10-17T12:55:24;23.00;61.10
36690;DHT22;22676;51.120;3.702;2022-10-17T12:58:15;23.00;61.10
36690;DHT22;22676;51.120;3.702;2022-10-17T13:01:08;23.00;61.10
36690;DHT22;22676;51.120;3.702;2022-10-17T13:04:17;23.00;61.40
36690;DHT22;22676;51.120;3.702;2022-10-17T13:07:15;23.00;61.10
36690;DHT22;22676;51.120;3.702;2022-10-17T13:10:15;23.00;61.00
36690;DHT22;22676;51.120;3.702;2022-10-17T13:13:19;23.00;61.00
36690;DHT22;22676;51.120;3.702;2022-10-17T13:16:30;23.00;61.00
36690;DHT22;22676;51.120;3.702;2022-10-17T13:19:23;23.00;61.10
36690;DHT22;22676;51.120;3.702;2022-10-17T13:22:15;23.00;61.10
36690;DHT22;22676;51.120;3.702;2022-10-17T13:25:16;23.00;61.10
36690;DHT22;22676;51.120;3.702;2022-10-17T13:28:11;23.00;61.10
36690;DHT22;22676;51.120;3.702;2022-10-17T13:31:01;23.00;61.10
36690;DHT22;22676;51.120;3.702;2022-10-17T13:33:54;23.00;61.30
36690;DHT22;22676;51.120;3.702;2022-10-17T13:36:46;23.00;61.20
36690;DHT22;22676;51.120;3.702;2022-10-17T13:39:39;23.00;61.20
36690;DHT22;22676;51.120;3.702;2022-10-17T13:42:35;23.00;61.20
36690;DHT22;22676;51.120;3.702;2022-10-17T13:45:28;23.00;61.20
36690;DHT22;22676;51.120;3.702;2022-10-17T13:48:21;23.00;61.20
36690;DHT22;22676;51.120;3.702;2022-10-17T13:51:13;23.00;61.20
36690;DHT22;22676;51.120;3.702;2022-10-17T13:54:15;23.00;61.20
36690;DHT22;22676;51.120;3.702;2022-10-17T14:00:10;23.00;61.20
36690;DHT22;22676;51.120;3.702;2022-10-17T14:03:04;23.00;61.30
36690;DHT22;22676;51.120;3.702;2022-10-17T14:09:22;23.10;61.30
36690;DHT22;22676;51.120;3.702;2022-10-17T14:12:13;23.10;61.20
36690;DHT22;22676;51.120;3.702;2022-10-17T14:15:05;23.10;61.10
36690;DHT22;22676;51.120;3.702;2022-10-17T14:18:00;23.00;61.80
36690;DHT22;22676;51.120;3.702;2022-10-17T14:20:52;23.00;61.80
36690;DHT22;22676;51.120;3.702;2022-10-17T14:23:43;23.10;61.90
36690;DHT22;22676;51.120;3.702;2022-10-17T14:26:33;23.10;61.70
36690;DHT22;22676;51.120;3.702;2022-10-17T14:29:49;23.10;61.70
36690;DHT22;22676;51.120;3.702;2022-10-17T14:32:35;23.10;61.70
36690;DHT22;22676;51.120;3.702;2022-10-17T14:35:25;23.10;61.60
36690;DHT22;22676;51.120;3.702;2022-10-17T14:38:17;23.10;61.60
36690;DHT22;22676;51.120;3.702;2022-10-17T14:41:11;23.10;61.80
36690;DHT22;22676;51.120;3.702;2022-10-17T14:44:06;23.10;61.50
36690;DHT22;22676;51.120;3.702;2022-10-17T14:46:58;23.10;61.60
36690;DHT22;22676;51.120;3.702;2022-10-17T14:49:50;23.10;61.60
36690;DHT22;22676;51.120;3.702;2022-10-17T14:52:50;23.10;61.60
36690;DHT22;22676;51.120;3.702;2022-10-17T14:55:54;23.00;61.70
36690;DHT22;22676;51.120;3.702;2022-10-17T14:58:45;23.00;61.70
36690;DHT22;22676;51.120;3.702;2022-10-17T15:01:36;23.00;61.60
36690;DHT22;22676;51.120;3.702;2022-10-17T15:04:41;23.10;61.70
36690;DHT22;22676;51.120;3.702;2022-10-17T15:07:32;23.10;61.70
36690;DHT22;22676;51.120;3.702;2022-10-17T15:10:30;23.10;61.70
36690;DHT22;22676;51.120;3.702;2022-10-17T15:13:21;23.10;61.70
36690;DHT22;22676;51.120;3.702;2022-10-17T15:29:05;23.00;61.90
36690;DHT22;22676;51.120;3.702;2022-10-17T15:31:56;23.00;61.90
36690;DHT22;22676;51.120;3.702;2022-10-17T15:34:46;23.00;61.90
36690;DHT22;22676;51.120;3.702;2022-10-17T15:37:37;23.00;61.90
36690;DHT22;22676;51.120;3.702;2022-10-17T15:40:29;23.00;61.80
36690;DHT22;22676;51.120;3.702;2022-10-17T15:43:19;23.00;61.80
36690;DHT22;22676;51.120;3.702;2022-10-17T15:46:18;23.00;61.80
36690;DHT22;22676;51.120;3.702;2022-10-17T15:49:10;23.00;61.80
36690;DHT22;22676;51.120;3.702;2022-10-17T15:52:01;23.00;61.80
36690;DHT22;22676;51.120;3.702;2022-10-17T15:54:52;23.00;62.00
36690;DHT22;22676;51.120;3.702;2022-10-17T15:57:43;22.90;62.00
36690;DHT22;22676;51.120;3.702;2022-10-17T16:00:35;22.90;62.10
36690;DHT22;22676;51.120;3.702;2022-10-17T18:04:12;22.90;62.90
36690;DHT22;22676;51.120;3.702;2022-10-17T18:06:38;22.90;62.80
36690;DHT22;22676;51.120;3.702;2022-10-17T18:09:04;23.00;62.80
36690;DHT22;22676;51.120;3.702;2022-10-17T18:11:30;23.00;62.60
36690;DHT22;22676;51.120;3.702;2022-10-17T18:13:57;23.00;62.50
36690;DHT22;22676;51.120;3.702;2022-10-17T18:16:23;23.00;63.00
36690;DHT22;22676;51.120;3.702;2022-10-17T18:18:49;23.00;62.30
36690;DHT22;22676;51.120;3.702;2022-10-17T18:21:14;23.00;62.40
36690;DHT22;22676;51.120;3.702;2022-10-17T18:23:41;23.10;62.30
36690;DHT22;22676;51.120;3.702;2022-10-17T18:26:07;23.20;62.20
36690;DHT22;22676;51.120;3.702;2022-10-17T18:28:36;23.10;62.00
36690;DHT22;22676;51.120;3.702;2022-10-17T18:31:03;23.10;62.10
36690;DHT22;22676;51.120;3.702;2022-10-17T18:33:29;23.10;62.10
36690;DHT22;22676;51.120;3.702;2022-10-17T18:35:54;23.20;62.20
36690;DHT22;22676;51.120;3.702;2022-10-17T18:38:20;23.20;62.20
36690;DHT22;22676;51.120;3.702;2022-10-17T18:40:45;23.20;62.30
36690;DHT22;22676;51.120;3.702;2022-10-17T18:43:11;23.20;62.30
36690;DHT22;22676;51.120;3.702;2022-10-17T18:45:36;23.20;62.40
36690;DHT22;22676;51.120;3.702;2022-10-17T18:48:30;23.10;62.30
36690;DHT22;22676;51.120;3.702;2022-10-17T19:42:40;23.10;62.40
36690;DHT22;22676;51.120;3.702;2022-10-17T19:45:30;23.10;62.80
36690;DHT22;22676;51.120;3.702;2022-10-17T19:48:22;23.10;62.60
36690;DHT22;22676;51.120;3.702;2022-10-17T19:51:13;23.10;62.40
36690;DHT22;22676;51.120;3.702;2022-10-17T19:54:04;23.10;62.30
36690;DHT22;22676;51.120;3.702;2022-10-17T19:56:55;23.10;62.20
36690;DHT22;22676;51.120;3.702;2022-10-17T19:59:46;23.00;62.10
36690;DHT22;22676;51.120;3.702;2022-10-17T20:02:36;23.00;62.00
36690;DHT22;22676;51.120;3.702;2022-10-17T20:05:42;23.00;62.20
36690;DHT22;22676;51.120;3.702;2022-10-17T20:08:32;23.00;62.30
36690;DHT22;22676;51.120;3.702;2022-10-17T20:11:25;23.00;62.30
36690;DHT22;22676;51.120;3.702;2022-10-17T20:14:16;23.00;62.30
36690;DHT22;22676;51.120;3.702;2022-10-17T20:17:06;23.00;62.40
36690;DHT22;22676;51.120;3.702;2022-10-17T20:19:57;23.00;62.50
36690;DHT22;22676;51.120;3.702;2022-10-17T20:22:48;22.90;62.40
36690;DHT22;22676;51.120;3.702;2022-10-17T20:25:39;22.90;62.50
36690;DHT22;22676;51.120;3.702;2022-10-17T20:28:29;22.90;62.50
36690;DHT22;22676;51.120;3.702;2022-10-17T20:31:21;22.90;62.50
36690;DHT22;22676;51.120;3.702;2022-10-17T20:34:13;22.90;62.40
36690;DHT22;22676;51.120;3.702;2022-10-17T20:37:03;22.90;62.70
36690;DHT22;22676;51.120;3.702;2022-10-17T20:39:55;23.00;62.60
36690;DHT22;22676;51.120;3.702;2022-10-17T20:42:45;22.90;62.60
36690;DHT22;22676;51.120;3.702;2022-10-17T20:45:37;22.90;62.40
36690;DHT22;22676;51.120;3.702;2022-10-17T20:48:28;23.00;62.40
36690;DHT22;22676;51.120;3.702;2022-10-17T20:51:19;23.00;62.30
36690;DHT22;22676;51.120;3.702;2022-10-17T20:54:09;23.00;62.00
36690;DHT22;22676;51.120;3.702;2022-10-17T20:57:01;23.00;61.90
36690;DHT22;22676;51.120;3.702;2022-10-17T20:59:51;23.00;61.80
36690;DHT22;22676;51.120;3.702;2022-10-17T21:02:43;22.90;62.10
36690;DHT22;22676;51.120;3.702;2022-10-17T21:05:53;22.90;62.30
36690;DHT22;22676;51.120;3.702;2022-10-17T21:08:45;23.00;62.20
36690;DHT22;22676;51.120;3.702;2022-10-17T21:11:36;23.00;62.30
36690;DHT22;22676;51.120;3.702;2022-10-17T21:14:27;23.00;62.10
36690;DHT22;22676;51.120;3.702;2022-10-17T21:17:18;23.10;62.20
36690;DHT22;22676;51.120;3.702;2022-10-17T21:20:09;23.00;62.30
36690;DHT22;22676;51.120;3.702;2022-10-17T21:23:00;23.00;62.20
36690;DHT22;22676;51.120;3.702;2022-10-17T21:25:50;23.10;62.10
36690;DHT22;22676;51.120;3.702;2022-10-17T21:28:42;23.10;62.00
36690;DHT22;22676;51.120;3.702;2022-10-17T21:31:34;23.10;62.00
36690;DHT22;22676;51.120;3.702;2022-10-17T21:34:26;23.10;62.00
36690;DHT22;22676;51.120;3.702;2022-10-17T21:37:17;23.00;62.00
36690;DHT22;22676;51.120;3.702;2022-10-17T21:40:08;23.10;62.10
36690;DHT22;22676;51.120;3.702;2022-10-17T21:42:59;23.10;62.10
36690;DHT22;22676;51.120;3.702;2022-10-17T21:45:50;23.00;62.00
36690;DHT22;22676;51.120;3.702;2022-10-17T21:48:40;23.00;62.00
36690;DHT22;22676;51.120;3.702;2022-10-17T21:51:32;23.10;62.10
36690;DHT22;22676;51.120;3.702;2022-10-17T21:54:22;23.00;62.00
36690;DHT22;22676;51.120;3.702;2022-10-17T21:57:14;23.00;62.00
36690;DHT22;22676;51.120;3.702;2022-10-17T22:00:04;23.00;61.90
36690;DHT22;22676;51.120;3.702;2022-10-17T22:02:56;23.00;62.10
36690;DHT22;22676;51.120;3.702;2022-10-17T22:55:42;23.00;62.10
36690;DHT22;22676;51.120;3.702;2022-10-17T22:58:38;23.00;62.20
36690;DHT22;22676;51.120;3.702;2022-10-17T23:01:30;23.00;61.80
36690;DHT22;22676;51.120;3.702;2022-10-17T23:04:37;22.90;61.70
36690;DHT22;22676;51.120;3.702;2022-10-17T23:07:28;23.00;62.00
36690;DHT22;22676;51.120;3.702;2022-10-17T23:10:18;22.90;62.10
36690;DHT22;22676;51.120;3.702;2022-10-17T23:13:10;23.00;62.00
36690;DHT22;22676;51.120;3.702;2022-10-17T23:16:00;23.00;61.90
36690;DHT22;22676;51.120;3.702;2022-10-17T23:18:52;23.00;61.70
36690;DHT22;22676;51.120;3.702;2022-10-17T23:21:42;23.10;62.00
36690;DHT22;22676;51.120;3.702;2022-10-17T23:24:34;23.10;61.80
36690;DHT22;22676;51.120;3.702;2022-10-17T23:27:24;23.10;61.70
36690;DHT22;22676;51.120;3.702;2022-10-17T23:30:16;23.10;61.60
36690;DHT22;22676;51.120;3.702;2022-10-17T23:33:06;23.10;61.60
36690;DHT22;22676;51.120;3.702;2022-10-17T23:36:02;23.10;61.60
36690;DHT22;22676;51.120;3.702;2022-10-17T23:38:54;23.10;61.70
36690;DHT22;22676;51.120;3.702;2022-10-17T23:41:45;23.10;61.60
36690;DHT22;22676;51.120;3.702;2022-10-17T23:44:35;23.10;61.60
36690;DHT22;22676;51.120;3.702;2022-10-17T23:47:26;23.10;61.60
36690;DHT22;22676;51.120;3.702;2022-10-17T23:50:16;23.10;61.60
36690;DHT22;22676;51.120;3.702;2022-10-17T23:53:07;23.10;61.60
36690;DHT22;22676;51.120;3.702;2022-10-17T23:55:59;23.10;61.70
36690;DHT22;22676;51.120;3.702;2022-10-17T23:58:50;23.10;61.70
